Česky Dansk Deutsch English Español Suomi Français Magyar Italiano Nederlands norsk Polski Português svenska Türkçe

 

Het Weer

Rivera (Uruguay)

21:00, 14 juni 2016 (GMT)

NWNNE
WE
SWSSE
Home            
Rivera Tacuarembo Artigas Bage Aeroporto Uruguaiana Aeroporto Paso De Los Libres Aerodrome Melo Monte Caseros Aerodrome Santa Maria Aero-Porto Salto Concordia Aerodrome Curuzu Cuatia Aerodrome Treinta Y Tres Paysandu Durazno Pelotas Villaguay Aerodrome Mercedes Gualeguaychu Aerodrome Posadas Aero. Encarnacion Passo Fundo Porto Alegre

Om een weerknop op uw website of weblog te plaatsen, copieer onderstaande code en plak die in uw pagina. In het eerste vakje staat HTML-code, in het tweede vakje UBB-code.


Add to Google

Details

Visibility:Greater than 10000 m, 10 km, 32800 ft, 6.2 miles
Clouds:Ein wenig bewölkt at 2300 ft, 701 m
Durchbrochene Bewölkung at 10000 ft, 3048 m
Temperature:13°C, 55°F
Dew-point:8°C, 46°F
Atmospheric pressure:1020 hPa, 765.1 mmHg, 30.12 inHg, 1.007 atm
Relative humidity:71.6 %
METAR:SURV 142100Z 00000KT 9999 FEW023 BKN100 13/08 Q1020

Snelkoppelingen

Actuele weersinformatie van de hele wereld. Voeg locaties toe met het plus (+) symbool. Deze snelkoppelingen kunnen worden toegevoegd aan Google.

Lid van de Technetium groep

website free tracking
StatCounter NetStat W3C Validator

01-10-2022 11:00:58
astro.technetium.be money.technetium.be phote.technetium.be tafeltennistafel.technetium.be www.ligfiets.net